createdAt,value
2018-11-05T00:01:13.536Z,90.83
2018-11-05T00:03:41.876Z,92.33
2018-11-05T00:06:10.212Z,96.13
2018-11-05T00:08:38.556Z,112.77
2018-11-05T00:11:06.904Z,104.70
2018-11-05T00:13:35.232Z,111.60
2018-11-05T00:16:03.549Z,98.30
2018-11-05T00:18:31.956Z,108.97
2018-11-05T00:21:00.268Z,99.70
2018-11-05T00:23:28.604Z,101.77
2018-11-05T00:25:56.920Z,104.17
2018-11-05T00:28:25.324Z,100.27
2018-11-05T00:30:53.635Z,97.83
2018-11-05T00:33:21.961Z,99.57
2018-11-05T00:35:50.255Z,97.43
2018-11-05T00:38:18.589Z,95.50
2018-11-05T00:40:46.900Z,99.80
2018-11-05T00:43:15.243Z,95.93
2018-11-05T00:45:43.614Z,100.97
2018-11-05T00:48:11.872Z,101.97
2018-11-05T00:50:40.189Z,94.77
2018-11-05T00:53:08.501Z,92.80
2018-11-05T00:55:36.829Z,82.73
2018-11-05T00:58:05.444Z,102.70
2018-11-05T01:00:33.772Z,108.73
2018-11-05T01:03:02.204Z,101.30
2018-11-05T01:05:30.528Z,90.53
2018-11-05T01:07:58.876Z,102.67
2018-11-05T01:10:27.204Z,90.90
2018-11-05T01:12:55.515Z,90.43
2018-11-05T01:15:23.840Z,90.37
2018-11-05T01:17:52.260Z,103.03
2018-11-05T01:20:20.591Z,99.83
2018-11-05T01:22:48.905Z,106.63
2018-11-05T01:25:17.219Z,106.07
2018-11-05T01:27:45.518Z,95.10
2018-11-05T01:30:14.195Z,98.27
2018-11-05T01:32:42.560Z,90.33
2018-11-05T01:35:12.079Z,106.87
2018-11-05T01:37:40.394Z,98.73
2018-11-05T01:40:11.223Z,93.47
2018-11-05T01:42:39.551Z,97.27
2018-11-05T01:45:09.582Z,90.47
2018-11-05T01:47:37.958Z,99.90
2018-11-05T01:50:07.743Z,110.33
2018-11-05T01:52:36.057Z,96.47
2018-11-05T01:55:04.527Z,98.70
2018-11-05T01:57:32.824Z,97.30
2018-11-05T02:00:01.127Z,82.13
2018-11-05T02:02:29.475Z,105.40
2018-11-05T02:04:57.919Z,102.30
2018-11-05T02:07:26.415Z,99.13
2018-11-05T02:09:54.727Z,108.50
2018-11-05T02:12:23.080Z,98.40
2018-11-05T02:14:51.402Z,99.47
2018-11-05T02:17:19.724Z,111.40
2018-11-05T02:19:49.315Z,107.13
2018-11-05T02:22:17.643Z,107.10
2018-11-05T02:24:45.955Z,103.73
2018-11-05T02:27:14.385Z,95.43
2018-11-05T02:29:42.612Z,109.70
2018-11-05T02:32:11.147Z,97.30
2018-11-05T02:34:39.515Z,110.53
2018-11-05T02:37:07.816Z,104.57
2018-11-05T02:39:36.143Z,109.10
2018-11-05T02:42:04.562Z,111.50
2018-11-05T02:44:32.847Z,101.97
2018-11-05T02:47:01.347Z,94.37
2018-11-05T02:49:29.621Z,114.50
2018-11-05T02:51:57.899Z,106.60
2018-11-05T02:54:26.264Z,103.57
2018-11-05T02:56:54.585Z,94.63
2018-11-05T02:59:22.925Z,126.50
2018-11-05T03:01:51.389Z,106.60
2018-11-05T03:04:19.725Z,102.23
2018-11-05T03:06:48.064Z,110.40
2018-11-05T03:09:16.431Z,98.17
2018-11-05T03:11:44.759Z,105.83
2018-11-05T03:14:13.101Z,114.60
2018-11-05T03:16:41.592Z,99.30
2018-11-05T03:19:09.924Z,115.07
2018-11-05T03:21:38.244Z,99.70
2018-11-05T03:24:06.622Z,105.97
2018-11-05T03:26:34.936Z,98.57
2018-11-05T03:29:03.309Z,105.53
2018-11-05T03:31:31.656Z,98.97
2018-11-05T03:34:00.081Z,104.00
2018-11-05T03:36:28.408Z,93.00
2018-11-05T03:38:57.000Z,95.57
2018-11-05T03:41:25.334Z,91.37
2018-11-05T03:43:53.651Z,108.00
2018-11-05T03:46:22.012Z,108.90
2018-11-05T03:48:50.340Z,108.13
2018-11-05T03:51:18.661Z,98.07
2018-11-05T03:53:47.897Z,107.23
2018-11-05T03:56:16.320Z,111.47
2018-11-05T03:58:44.556Z,93.33
2018-11-05T04:01:12.940Z,96.60
2018-11-05T04:03:41.269Z,106.53
2018-11-05T04:06:09.602Z,99.87
2018-11-05T04:08:38.100Z,92.73
2018-11-05T04:11:06.493Z,102.40
2018-11-05T04:13:34.803Z,92.40
2018-11-05T04:16:03.244Z,90.60
2018-11-05T04:18:31.900Z,91.90
2018-11-05T04:21:00.227Z,103.60
2018-11-05T04:23:28.732Z,104.00
2018-11-05T04:25:57.060Z,90.73
2018-11-05T04:28:25.369Z,89.53
2018-11-05T04:30:53.700Z,92.50
2018-11-05T04:33:22.036Z,98.00
2018-11-05T04:35:50.360Z,101.37
2018-11-05T04:38:18.745Z,108.93
2018-11-05T04:40:47.054Z,102.13
2018-11-05T04:43:15.411Z,103.10
2018-11-05T04:45:43.728Z,103.07
2018-11-05T04:48:12.072Z,94.90
2018-11-05T04:50:40.376Z,98.53
2018-11-05T04:53:08.711Z,107.23
2018-11-05T04:55:37.037Z,114.23
2018-11-05T04:58:05.416Z,101.13
2018-11-05T05:00:33.745Z,104.93
2018-11-05T05:03:02.116Z,100.53
2018-11-05T05:05:30.452Z,100.63
2018-11-05T05:07:58.777Z,100.40
2018-11-05T05:10:27.153Z,96.10
2018-11-05T05:12:55.476Z,104.77
2018-11-05T05:15:23.843Z,99.00
2018-11-05T05:17:52.149Z,108.70
2018-11-05T05:20:20.499Z,97.10
2018-11-05T05:22:48.992Z,99.83
2018-11-05T05:25:17.175Z,118.80
2018-11-05T05:27:45.571Z,110.07
2018-11-05T05:30:17.672Z,96.50
2018-11-05T05:32:46.846Z,109.93
2018-11-05T05:35:15.658Z,106.20
2018-11-05T05:37:44.108Z,84.10
2018-11-05T05:40:12.500Z,101.33
2018-11-05T05:42:41.276Z,108.50
2018-11-05T05:45:10.921Z,95.23
2018-11-05T05:47:39.472Z,103.87
2018-11-05T05:50:10.806Z,99.67
2018-11-05T05:52:39.197Z,99.33
2018-11-05T05:55:08.018Z,98.10
2018-11-05T05:57:36.460Z,99.63
2018-11-05T06:00:08.177Z,93.87
2018-11-05T06:02:36.700Z,80.27
2018-11-05T06:05:06.524Z,88.10
2018-11-05T06:07:34.822Z,95.47
2018-11-05T06:10:03.122Z,91.70
2018-11-05T06:12:31.458Z,89.33
2018-11-05T06:14:59.734Z,88.47
2018-11-05T06:17:28.038Z,88.97
2018-11-05T06:19:56.316Z,86.73
2018-11-05T06:22:24.706Z,96.30
2018-11-05T06:24:53.006Z,86.17
2018-11-05T06:27:21.282Z,104.57
2018-11-05T06:29:49.762Z,93.57
2018-11-05T06:32:18.062Z,94.67
2018-11-05T06:34:46.322Z,84.47
2018-11-05T06:37:14.638Z,95.27
2018-11-05T06:39:42.914Z,106.27
2018-11-05T06:42:11.206Z,93.47
2018-11-05T06:44:39.482Z,92.27
2018-11-05T06:47:07.758Z,92.50
2018-11-05T06:49:36.030Z,88.77
2018-11-05T06:52:04.502Z,84.47
2018-11-05T06:54:32.799Z,87.53
2018-11-05T06:57:01.066Z,83.63
2018-11-05T06:59:29.358Z,87.80
2018-11-05T07:01:57.629Z,90.40
2018-11-05T07:04:25.922Z,93.57
2018-11-05T07:06:54.198Z,103.27
2018-11-05T07:09:23.562Z,84.77
2018-11-05T07:11:51.821Z,94.50
2018-11-05T07:14:20.176Z,96.07
2018-11-05T07:16:48.498Z,83.40
2018-11-05T07:19:16.896Z,79.50
2018-11-05T07:21:45.168Z,85.17
2018-11-05T07:24:13.633Z,87.90
2018-11-05T07:26:42.053Z,76.33
2018-11-05T07:29:10.327Z,87.20
2018-11-05T07:31:38.632Z,89.17
2018-11-05T07:34:07.178Z,73.93
2018-11-05T07:36:35.332Z,79.00
2018-11-05T07:39:03.772Z,86.47
2018-11-05T07:41:32.079Z,87.20
2018-11-05T07:44:00.419Z,83.80
2018-11-05T07:46:28.735Z,80.10
2018-11-05T07:48:57.114Z,69.30
2018-11-05T07:51:25.432Z,82.53
2018-11-05T07:53:53.744Z,87.07
2018-11-05T07:56:22.202Z,74.27
2018-11-05T07:58:50.412Z,82.57
2018-11-05T08:01:18.743Z,86.63
2018-11-05T08:03:47.103Z,77.73
2018-11-05T08:06:17.419Z,76.33
2018-11-05T08:08:45.824Z,69.23
2018-11-05T08:11:14.851Z,81.20
2018-11-05T08:13:43.168Z,84.43
2018-11-05T08:16:11.577Z,84.03
2018-11-05T08:18:39.879Z,75.93
2018-11-05T08:21:08.263Z,75.77
2018-11-05T08:23:36.605Z,72.80
2018-11-05T08:26:05.556Z,68.23
2018-11-05T08:31:23.584Z,76.53
2018-11-05T08:33:51.905Z,62.73
2018-11-05T08:36:20.264Z,75.97
2018-11-05T08:38:48.624Z,64.63
2018-11-05T08:41:17.030Z,63.00
2018-11-05T08:43:45.356Z,73.02
2018-11-05T08:46:13.732Z,79.27
2018-11-05T08:48:42.066Z,66.87
2018-11-05T08:51:10.546Z,73.20
2018-11-05T08:53:38.769Z,74.73
2018-11-05T08:56:07.152Z,72.67
2018-11-05T08:58:35.516Z,64.40
2018-11-05T09:01:09.355Z,60.03
2018-11-05T09:03:37.603Z,73.90
2018-11-05T09:06:06.376Z,70.13
2018-11-05T09:08:34.896Z,67.00
2018-11-05T09:11:03.582Z,62.20
2018-11-05T09:13:31.600Z,58.43
2018-11-05T09:15:59.937Z,64.87
2018-11-05T09:18:28.457Z,70.27
2018-11-05T09:20:56.912Z,66.23
2018-11-05T09:23:25.195Z,66.57
2018-11-05T09:25:53.775Z,58.23
2018-11-05T09:28:22.104Z,58.73
2018-11-05T09:30:50.430Z,58.13
2018-11-05T09:33:18.856Z,58.43
2018-11-05T09:35:47.211Z,63.27
2018-11-05T09:38:15.544Z,62.37
2018-11-05T09:40:43.956Z,64.23
2018-11-05T09:43:12.292Z,67.00
2018-11-05T09:45:40.620Z,61.20
2018-11-05T09:48:08.952Z,68.20
2018-11-05T09:50:37.354Z,67.53
2018-11-05T09:53:05.945Z,66.90
2018-11-05T09:55:34.352Z,64.13
2018-11-05T09:58:02.660Z,59.53
2018-11-05T10:00:31.000Z,62.60
2018-11-05T10:03:18.016Z,61.67
2018-11-05T10:05:46.420Z,57.17
2018-11-05T10:08:15.738Z,61.97
2018-11-05T10:10:44.080Z,58.60
2018-11-05T10:13:12.432Z,57.53
2018-11-05T10:15:40.776Z,66.10
2018-11-05T10:18:09.237Z,53.00
2018-11-05T10:20:37.580Z,53.30
2018-11-05T10:23:06.060Z,62.70
2018-11-05T10:25:34.400Z,61.80
2018-11-05T10:28:05.018Z,48.63
2018-11-05T10:30:33.520Z,52.20
2018-11-05T10:33:01.901Z,64.47
2018-11-05T10:35:35.837Z,64.63
2018-11-05T10:38:04.176Z,66.50
2018-11-05T10:40:32.610Z,53.80
2018-11-05T10:43:00.967Z,63.07
2018-11-05T10:45:29.257Z,66.13
2018-11-05T10:47:57.588Z,61.87
2018-11-05T10:50:26.339Z,70.10
2018-11-05T10:52:54.628Z,64.40
2018-11-05T10:55:22.956Z,66.50
2018-11-05T10:57:51.305Z,58.83
2018-11-05T11:00:26.492Z,60.67
2018-11-05T11:03:00.308Z,68.53
2018-11-05T11:05:29.634Z,60.43
2018-11-05T11:07:58.920Z,64.10
2018-11-05T11:10:28.144Z,73.13
2018-11-05T11:12:56.693Z,58.23
2018-11-05T11:15:25.155Z,64.30
2018-11-05T11:17:53.832Z,63.10
2018-11-05T11:20:22.161Z,63.43
2018-11-05T11:22:50.493Z,64.60
2018-11-05T11:25:18.972Z,63.27
2018-11-05T11:27:47.377Z,70.30
2018-11-05T11:30:16.372Z,64.13
2018-11-05T11:32:45.276Z,59.83
2018-11-05T11:35:13.944Z,59.70
2018-11-05T11:37:42.324Z,71.67
2018-11-05T11:40:14.078Z,63.67
2018-11-05T11:42:43.480Z,64.53
2018-11-05T11:45:12.784Z,69.33
2018-11-05T11:47:41.133Z,58.20
2018-11-05T11:50:11.605Z,61.20
2018-11-05T11:52:40.141Z,59.07
2018-11-05T11:55:10.627Z,63.50
2018-11-05T11:57:39.324Z,61.07
2018-11-05T12:00:10.428Z,71.40
2018-11-05T12:02:38.780Z,68.87
2018-11-05T12:05:08.044Z,65.70
2018-11-05T12:07:36.486Z,70.33
2018-11-05T12:10:07.684Z,70.00
2018-11-05T12:12:36.021Z,62.00
2018-11-05T12:15:04.621Z,69.13
2018-11-05T12:17:32.752Z,66.13
2018-11-05T12:20:01.092Z,63.73
2018-11-05T12:22:29.516Z,73.83
2018-11-05T12:24:57.900Z,63.47
2018-11-05T12:27:26.172Z,62.53
2018-11-05T12:29:54.551Z,69.27
2018-11-05T12:32:22.908Z,63.23
2018-11-05T12:34:51.217Z,66.23
2018-11-05T12:37:19.968Z,62.80
2018-11-05T12:39:48.301Z,63.77
2018-11-05T12:42:16.632Z,58.47
2018-11-05T12:44:45.041Z,61.40
2018-11-05T12:47:13.440Z,61.50
2018-11-05T12:49:41.758Z,69.30
2018-11-05T12:52:10.079Z,70.10
2018-11-05T12:54:38.440Z,58.40
2018-11-05T12:57:06.768Z,68.10
2018-11-05T12:59:35.105Z,70.70
2018-11-05T13:02:03.434Z,65.73
2018-11-05T13:04:31.776Z,66.10
2018-11-05T13:07:00.307Z,63.50
2018-11-05T13:09:28.732Z,65.70
2018-11-05T13:11:57.272Z,69.90
2018-11-05T13:14:26.336Z,64.93
2018-11-05T13:16:55.032Z,76.37
2018-11-05T13:19:23.368Z,74.23
2018-11-05T13:21:51.692Z,65.50
2018-11-05T13:24:20.274Z,75.47
2018-11-05T13:26:48.688Z,62.53
2018-11-05T13:29:17.165Z,65.77
2018-11-05T13:31:45.512Z,70.90
2018-11-05T13:34:13.857Z,67.33
2018-11-05T13:36:42.422Z,68.20
2018-11-05T13:39:10.797Z,74.47
2018-11-05T13:41:39.269Z,68.20
2018-11-05T13:44:07.629Z,70.13
2018-11-05T13:46:36.351Z,83.33
2018-11-05T13:49:04.978Z,77.43
2018-11-05T13:51:32.693Z,82.17
2018-11-05T13:54:01.060Z,82.33
2018-11-05T13:56:29.392Z,74.93
2018-11-05T13:58:57.735Z,75.90
2018-11-05T14:01:26.069Z,78.67
2018-11-05T14:03:54.422Z,83.63
2018-11-05T14:06:23.772Z,71.27
2018-11-05T14:08:52.123Z,78.00
2018-11-05T14:11:20.451Z,100.47
2018-11-05T14:13:48.803Z,84.20
2018-11-05T14:16:17.140Z,80.67
2018-11-05T14:18:45.493Z,79.20
2018-11-05T14:21:13.836Z,82.33
2018-11-05T14:23:42.185Z,81.27
2018-11-05T14:26:10.703Z,86.23
2018-11-05T14:28:39.119Z,82.30
2018-11-05T14:31:07.239Z,88.77
2018-11-05T14:33:36.677Z,89.80
2018-11-05T14:36:05.025Z,84.73
2018-11-05T14:38:33.464Z,85.87
2018-11-05T14:41:01.772Z,76.97
2018-11-05T14:43:30.117Z,88.83
2018-11-05T14:45:58.489Z,82.83
2018-11-05T14:48:26.836Z,80.97
2018-11-05T14:50:55.178Z,80.63
2018-11-05T14:53:23.640Z,88.37
2018-11-05T14:55:51.973Z,93.20
2018-11-05T14:58:20.301Z,79.27
2018-11-05T15:00:48.780Z,81.87
2018-11-05T15:03:17.120Z,87.30
2018-11-05T15:05:45.560Z,78.63
2018-11-05T15:08:13.912Z,75.10
2018-11-05T15:10:42.231Z,80.40
2018-11-05T15:13:10.604Z,77.17
2018-11-05T15:15:38.928Z,83.17
2018-11-05T15:18:07.340Z,70.67
2018-11-05T15:20:35.572Z,75.27
2018-11-05T15:23:03.942Z,77.73
2018-11-05T15:25:32.419Z,83.67
2018-11-05T15:28:00.680Z,97.27
2018-11-05T15:30:29.015Z,90.67
2018-11-05T15:32:57.354Z,86.73
2018-11-05T15:35:25.672Z,81.53
2018-11-05T15:37:54.019Z,84.77
2018-11-05T15:40:22.657Z,83.73
2018-11-05T15:42:51.000Z,90.93
2018-11-05T15:45:20.641Z,83.30
2018-11-05T15:47:48.984Z,89.73
2018-11-05T15:50:18.633Z,89.00
2018-11-05T15:52:47.273Z,81.33
2018-11-05T15:55:15.595Z,79.27
2018-11-05T15:57:43.948Z,78.63
2018-11-05T16:00:15.525Z,79.70
2018-11-05T16:02:44.872Z,84.17
2018-11-05T16:05:13.274Z,86.63
2018-11-05T16:07:41.613Z,87.23
2018-11-05T16:10:09.985Z,83.90
2018-11-05T16:12:38.739Z,72.77
2018-11-05T16:15:08.148Z,92.60
2018-11-05T16:17:37.044Z,76.87
2018-11-05T16:20:06.637Z,88.50
2018-11-05T16:22:35.063Z,93.73
2018-11-05T16:25:03.433Z,84.47
2018-11-05T16:27:32.161Z,79.20
2018-11-05T16:30:00.667Z,92.07
2018-11-05T16:32:29.012Z,89.10
2018-11-05T16:34:58.052Z,87.60
2018-11-05T16:37:26.327Z,90.47
2018-11-05T16:39:54.740Z,96.67
2018-11-05T16:42:23.389Z,90.57
2018-11-05T16:44:51.724Z,88.93
2018-11-05T16:47:20.065Z,84.23
2018-11-05T16:49:49.067Z,75.83
2018-11-05T16:52:17.393Z,83.40
2018-11-05T16:54:45.808Z,88.53
2018-11-05T16:57:14.213Z,77.83
2018-11-05T16:59:42.704Z,86.80
2018-11-05T17:02:14.585Z,86.40
2018-11-05T17:04:43.733Z,77.27
2018-11-05T17:07:12.066Z,80.87
2018-11-05T17:09:40.405Z,80.23
2018-11-05T17:12:08.941Z,78.43
2018-11-05T17:14:37.597Z,66.60
2018-11-05T17:17:05.961Z,73.70
2018-11-05T17:19:34.636Z,85.47
2018-11-05T17:22:03.056Z,63.93
2018-11-05T17:24:31.393Z,70.93
2018-11-05T17:26:59.757Z,64.07
2018-11-05T17:29:28.080Z,71.37
2018-11-05T17:31:56.549Z,64.13
2018-11-05T17:34:24.992Z,69.93
2018-11-05T17:36:53.541Z,79.13
2018-11-05T17:39:21.868Z,64.10
2018-11-05T17:41:50.314Z,75.53
2018-11-05T17:44:18.650Z,75.00
2018-11-05T17:46:46.984Z,68.93
2018-11-05T17:49:15.444Z,82.47
2018-11-05T17:51:43.773Z,82.97
2018-11-05T17:54:12.109Z,81.60
2018-11-05T17:56:40.524Z,77.53
2018-11-05T17:59:08.936Z,79.67
2018-11-05T18:01:37.303Z,79.40
2018-11-05T18:04:06.346Z,78.97
2018-11-05T18:06:34.624Z,87.20
2018-11-05T18:09:03.022Z,90.70
2018-11-05T18:11:31.397Z,92.30
2018-11-05T18:13:59.779Z,106.90
2018-11-05T18:16:28.112Z,113.90
2018-11-05T18:18:56.523Z,122.40
2018-11-05T18:21:24.868Z,92.50
2018-11-05T18:23:53.203Z,101.17
2018-11-05T18:26:21.525Z,99.03
2018-11-05T18:28:51.091Z,117.87
2018-11-05T18:31:19.497Z,129.47
2018-11-05T18:33:47.748Z,111.43
2018-11-05T18:36:16.156Z,130.07
2018-11-05T18:38:44.505Z,124.30
2018-11-05T18:41:12.849Z,116.27
2018-11-05T18:43:41.204Z,116.73
2018-11-05T18:46:09.549Z,120.43
2018-11-05T18:48:37.913Z,116.87
2018-11-05T18:51:06.328Z,109.87
2018-11-05T18:53:34.765Z,112.73
2018-11-05T18:56:03.366Z,130.47
2018-11-05T18:58:31.725Z,118.63
2018-11-05T19:01:00.062Z,113.37
2018-11-05T19:03:28.515Z,126.90
2018-11-05T19:05:56.865Z,115.33
2018-11-05T19:08:25.197Z,120.97
2018-11-05T19:10:53.541Z,115.97
2018-11-05T19:13:22.429Z,117.93
2018-11-05T19:15:50.840Z,116.83
2018-11-05T19:18:19.112Z,115.07
2018-11-05T19:20:47.517Z,116.60
2018-11-05T19:23:15.913Z,125.90
2018-11-05T19:25:44.358Z,126.78
2018-11-05T19:28:12.893Z,110.27
2018-11-05T19:30:41.337Z,114.40
2018-11-05T19:33:09.650Z,113.07
2018-11-05T19:35:38.005Z,115.47
2018-11-05T19:38:06.352Z,111.83
2018-11-05T19:40:34.688Z,129.00
2018-11-05T19:43:03.055Z,116.83
2018-11-05T19:45:31.412Z,117.03
2018-11-05T19:47:59.745Z,113.13
2018-11-05T19:50:28.104Z,114.17
2018-11-05T19:52:56.450Z,121.73
2018-11-05T19:55:24.863Z,110.87
2018-11-05T19:57:53.694Z,113.27
2018-11-05T20:00:27.903Z,117.07
2018-11-05T20:02:57.259Z,112.47
2018-11-05T20:05:25.679Z,120.83
2018-11-05T20:07:54.780Z,115.90
2018-11-05T20:10:23.175Z,116.87
2018-11-05T20:12:51.553Z,113.70
2018-11-05T20:15:20.012Z,108.30
2018-11-05T20:17:49.225Z,118.83
2018-11-05T20:20:19.021Z,121.63
2018-11-05T20:22:47.470Z,112.37
2018-11-05T20:25:15.797Z,126.63
2018-11-05T20:27:44.364Z,122.37
2018-11-05T20:30:17.341Z,121.17
2018-11-05T20:32:46.936Z,136.17
2018-11-05T20:35:15.226Z,117.17
2018-11-05T20:37:43.624Z,119.67
2018-11-05T20:40:14.285Z,116.30
2018-11-05T20:42:43.755Z,116.40
2018-11-05T20:45:12.124Z,121.83
2018-11-05T20:47:40.825Z,115.83
2018-11-05T20:50:10.005Z,119.23
2018-11-05T20:52:38.685Z,112.27
2018-11-05T20:55:08.217Z,130.67
2018-11-05T20:57:36.608Z,127.73
2018-11-05T21:00:05.938Z,124.57
2018-11-05T21:02:34.304Z,124.87
2018-11-05T21:05:03.302Z,119.40
2018-11-05T21:07:31.871Z,118.73
2018-11-05T21:10:01.301Z,113.43
2018-11-05T21:12:29.692Z,142.07
2018-11-05T21:14:58.040Z,124.40
2018-11-05T21:17:26.355Z,123.07
2018-11-05T21:19:54.820Z,131.63
2018-11-05T21:22:23.191Z,126.70
2018-11-05T21:24:51.473Z,120.43
2018-11-05T21:27:19.808Z,130.73
2018-11-05T21:29:48.181Z,125.43
2018-11-05T21:32:16.507Z,128.23
2018-11-05T21:34:44.941Z,126.53
2018-11-05T21:37:13.230Z,120.73
2018-11-05T21:39:41.568Z,112.90
2018-11-05T21:42:10.100Z,117.67
2018-11-05T21:44:38.440Z,135.67
2018-11-05T21:47:06.771Z,124.70
2018-11-05T21:49:35.176Z,118.73
2018-11-05T21:52:03.525Z,126.40
2018-11-05T21:54:31.940Z,130.10
2018-11-05T21:57:00.552Z,136.27
2018-11-05T21:59:28.880Z,121.20
2018-11-05T22:01:57.244Z,127.27
2018-11-05T22:04:26.725Z,119.93
2018-11-05T22:06:55.085Z,138.50
2018-11-05T22:09:23.444Z,118.20
2018-11-05T22:11:51.818Z,122.43
2018-11-05T22:14:20.208Z,120.87
2018-11-05T22:16:48.534Z,144.87
2018-11-05T22:19:16.895Z,125.77
2018-11-05T22:21:45.241Z,146.67
2018-11-05T22:24:13.593Z,131.43
2018-11-05T22:26:41.944Z,135.93
2018-11-05T22:29:10.329Z,119.93
2018-11-05T22:31:38.646Z,133.20
2018-11-05T22:34:06.975Z,124.03
2018-11-05T22:36:36.283Z,137.53
2018-11-05T22:39:06.323Z,133.30
2018-11-05T22:41:34.715Z,124.70
2018-11-05T22:44:03.031Z,143.43
2018-11-05T22:46:31.339Z,125.83
2018-11-05T22:48:59.647Z,123.80
2018-11-05T22:51:28.095Z,134.57
2018-11-05T22:53:56.417Z,126.97
2018-11-05T22:56:24.762Z,132.37
2018-11-05T22:58:53.067Z,132.00
2018-11-05T23:01:26.651Z,130.67
2018-11-05T23:03:54.993Z,137.17
2018-11-05T23:06:23.316Z,122.60
2018-11-05T23:08:51.688Z,127.37
2018-11-05T23:11:20.000Z,121.50
2018-11-05T23:13:48.600Z,139.87
2018-11-05T23:16:16.972Z,149.23
2018-11-05T23:18:45.309Z,132.43
2018-11-05T23:21:13.649Z,135.07
2018-11-05T23:23:42.046Z,124.63
2018-11-05T23:26:10.368Z,132.67
2018-11-05T23:28:38.736Z,133.93
2018-11-05T23:31:07.064Z,130.67
2018-11-05T23:33:35.465Z,118.00
2018-11-05T23:36:04.109Z,139.53
2018-11-05T23:38:32.469Z,144.33
2018-11-05T23:41:00.914Z,121.07
2018-11-05T23:43:29.156Z,127.20
2018-11-05T23:45:57.512Z,133.13
2018-11-05T23:48:25.820Z,134.03
2018-11-05T23:50:54.200Z,136.40
2018-11-05T23:53:22.507Z,117.33
2018-11-05T23:55:50.827Z,132.20
2018-11-05T23:58:19.159Z,120.53
